TimeEST,TemperatureF,Dew PointF,Humidity,Sea Level PressureIn,VisibilityMPH,Wind Direction,Wind SpeedMPH,Gust SpeedMPH,PrecipitationIn,Events,Conditions,WindDirDegrees,DateUTC
12:53 AM,28.0,21.0,75,30.19,5.0,SW,9.2,-,N/A,,Haze,220,2013-01-08 05:53:00
1:53 AM,26.1,19.9,78,30.19,4.0,SSW,9.2,-,N/A,,Haze,210,2013-01-08 06:53:00
2:53 AM,27.0,19.9,75,30.19,5.0,SSW,9.2,-,N/A,,Haze,210,2013-01-08 07:53:00
3:53 AM,27.0,19.9,75,30.19,5.0,SW,9.2,-,N/A,,Haze,220,2013-01-08 08:53:00
4:53 AM,26.1,19.0,75,30.20,5.0,SW,9.2,-,N/A,,Haze,220,2013-01-08 09:53:00
5:53 AM,25.0,19.0,78,30.20,4.0,SW,6.9,-,N/A,,Haze,220,2013-01-08 10:53:00
6:53 AM,23.0,18.0,81,30.22,4.0,SSW,6.9,-,N/A,,Haze,210,2013-01-08 11:53:00
7:53 AM,24.1,18.0,77,30.24,4.0,SSW,8.1,-,N/A,,Haze,200,2013-01-08 12:53:00
8:53 AM,25.0,19.0,78,30.26,3.0,SW,6.9,-,N/A,,Haze,230,2013-01-08 13:53:00
9:53 AM,28.0,21.0,75,30.26,3.0,SW,6.9,-,N/A,,Haze,220,2013-01-08 14:53:00
10:53 AM,28.9,21.0,72,30.27,3.0,SW,9.2,-,N/A,,Haze,230,2013-01-08 15:53:00
11:53 AM,32.0,23.0,69,30.27,4.0,SSW,8.1,-,N/A,,Haze,210,2013-01-08 16:53:00
12:53 PM,34.0,25.0,70,30.24,4.0,SSW,9.2,-,N/A,,Haze,200,2013-01-08 17:53:00
1:53 PM,36.0,26.1,67,30.23,5.0,SSW,6.9,-,N/A,,Haze,200,2013-01-08 18:53:00
2:53 PM,37.0,26.1,65,30.24,5.0,South,8.1,-,N/A,,Haze,190,2013-01-08 19:53:00
3:53 PM,36.0,26.1,67,30.24,5.0,SSW,5.8,-,N/A,,Haze,200,2013-01-08 20:53:00
4:53 PM,34.0,25.0,70,30.24,5.0,South,3.5,-,N/A,,Haze,190,2013-01-08 21:53:00
5:53 PM,32.0,23.0,69,30.24,5.0,South,4.6,-,N/A,,Haze,170,2013-01-08 22:53:00
6:53 PM,30.9,23.0,72,30.25,5.0,South,6.9,-,N/A,,Haze,170,2013-01-08 23:53:00
7:53 PM,28.0,21.0,75,30.25,5.0,South,3.5,-,N/A,,Haze,180,2013-01-09 00:53:00
8:53 PM,28.0,21.9,78,30.23,4.0,SSE,6.9,-,N/A,,Haze,160,2013-01-09 01:53:00
9:53 PM,26.1,21.0,81,30.21,3.0,Calm,Calm,-,N/A,,Haze,0,2013-01-09 02:53:00
10:53 PM,28.9,24.1,82,30.20,4.0,SSE,4.6,-,N/A,,Haze,160,2013-01-09 03:53:00
11:53 PM,25.0,21.0,85,30.19,4.0,South,4.6,-,N/A,,Clear,170,2013-01-09 04:53:00